Time;durP1;ratioP1;P1;durP2;ratioP2;P2;SDS_P1;SDS_P2;PMS_P1;PMS_P2;Temp;Humidity;BMP_temperature;BMP_pressure;BME280_temperature;BME280_humidity;BME280_pressure;Samples;Min_cycle;Max_cycle;Signal;HPM_P1;HPM_P2
2021/03/12 00:00:57;;;;;;;21.70;13.32;;;;;;;7.46;76.06;92110.91;2078855;69;20157;-71
2021/03/12 00:03:33;;;;;;;20.65;12.35;;;;;;;7.46;75.88;92098.97;2078910;69;20156;-71
2021/03/12 00:06:17;;;;;;;19.10;12.43;;;;;;;7.33;77.52;92101.03;2072547;69;20147;-70
2021/03/12 00:08:46;;;;;;;16.95;10.73;;;;;;;7.56;76.13;92099.59;2079029;69;20136;-71
2021/03/12 00:11:13;;;;;;;14.75;9.63;;;;;;;7.40;76.34;92107.75;2078699;69;20922;-70
2021/03/12 00:13:42;;;;;;;20.30;11.50;;;;;;;7.27;76.72;92111.13;2078831;69;20196;-71
2021/03/12 00:16:08;;;;;;;18.75;11.85;;;;;;;7.22;76.62;92101.00;2079028;69;20139;-70
2021/03/12 00:18:43;;;;;;;18.52;11.35;;;;;;;7.03;76.39;92099.13;2078925;69;20132;-72
2021/03/12 00:21:11;;;;;;;18.00;11.63;;;;;;;6.56;77.75;92101.69;2078890;69;20146;-70
2021/03/12 00:23:39;;;;;;;17.30;11.57;;;;;;;6.85;77.91;92096.59;2075101;69;20657;-71
2021/03/12 00:26:05;;;;;;;18.80;11.55;;;;;;;7.25;76.94;92106.13;2075163;69;20154;-71
2021/03/12 00:28:33;;;;;;;19.42;12.98;;;;;;;6.77;78.80;92112.84;2075238;69;20150;-70
2021/03/12 00:30:59;;;;;;;16.05;11.05;;;;;;;7.07;76.77;92104.97;2078973;69;20234;-72
2021/03/12 00:33:27;;;;;;;17.02;11.63;;;;;;;7.21;76.12;92093.94;2075008;69;20601;-71
2021/03/12 00:35:53;;;;;;;17.70;11.85;;;;;;;7.10;76.50;92096.09;2075089;69;20156;-70
2021/03/12 00:38:22;;;;;;;15.93;9.80;;;;;;;7.15;76.86;92094.28;2075349;69;20140;-71
2021/03/12 00:41:09;;;;;;;13.13;9.00;;;;;;;7.21;76.50;92091.16;2075402;69;20235;-71
2021/03/12 00:43:49;;;;;;;8.75;6.45;;;;;;;6.76;78.60;92105.81;2075134;69;20167;-70
2021/03/12 00:46:24;;;;;;;14.95;9.95;;;;;;;6.77;78.22;92115.66;2072646;69;20170;-71
2021/03/12 00:48:49;;;;;;;15.50;9.80;;;;;;;7.01;76.53;92110.91;2078934;69;20598;-71
2021/03/12 00:51:15;;;;;;;15.43;10.15;;;;;;;6.93;76.21;92118.78;2079035;69;20187;-71
2021/03/12 00:54:01;;;;;;;15.73;10.32;;;;;;;6.72;77.77;92118.78;2076365;69;20252;-71
2021/03/12 00:56:26;;;;;;;15.52;9.75;;;;;;;6.87;77.73;92119.13;2075281;69;20222;-70
2021/03/12 00:58:52;;;;;;;14.32;10.00;;;;;;;6.80;77.28;92119.34;2078912;69;20139;-70
2021/03/12 01:01:27;;;;;;;14.43;9.35;;;;;;;6.69;77.40;92115.16;2072612;69;20215;-70
2021/03/12 01:03:53;;;;;;;15.55;9.85;;;;;;;6.85;76.83;92110.59;2078289;69;20128;-70
2021/03/12 01:06:19;;;;;;;11.18;7.75;;;;;;;6.68;77.44;92107.34;2072247;69;20150;-71
2021/03/12 01:08:49;;;;;;;11.13;6.00;;;;;;;6.77;77.70;92109.34;2075201;69;20143;-72
2021/03/12 01:11:18;;;;;;;7.72;5.45;;;;;;;6.84;77.39;92105.59;2075181;69;20159;-71
2021/03/12 01:13:44;;;;;;;8.00;5.40;;;;;;;6.93;76.63;92106.88;2075171;69;20565;-71
2021/03/12 01:16:10;;;;;;;7.60;5.32;;;;;;;7.03;76.79;92105.44;2075189;69;20150;-71
2021/03/12 01:18:36;;;;;;;13.75;9.65;;;;;;;6.49;77.50;92105.41;2078932;69;20159;-71
2021/03/12 01:21:11;;;;;;;13.07;8.80;;;;;;;6.88;76.19;92095.41;2075263;69;20179;-71
2021/03/12 01:23:37;;;;;;;12.80;8.27;;;;;;;6.73;76.27;92098.59;2075180;69;20235;-71
2021/03/12 01:26:03;;;;;;;13.50;8.43;;;;;;;6.79;77.02;92095.50;2075248;69;20222;-71
2021/03/12 01:28:36;;;;;;;12.38;8.45;;;;;;;6.59;78.04;92095.63;2075157;69;20151;-70
2021/03/12 01:31:02;;;;;;;13.13;8.02;;;;;;;6.78;77.49;92080.78;2075185;69;20174;-71
2021/03/12 01:33:44;;;;;;;13.07;8.82;;;;;;;6.86;77.00;92069.34;2072852;69;20211;-71
2021/03/12 01:36:12;;;;;;;12.20;8.20;;;;;;;6.72;77.13;92052.41;2075186;69;20160;-70
2021/03/12 01:38:50;;;;;;;11.95;7.85;;;;;;;6.91;76.19;92050.75;2078913;69;20132;-72
2021/03/12 01:41:16;;;;;;;11.38;7.60;;;;;;;6.30;77.31;92028.75;2075252;69;20182;-71
2021/03/12 01:43:45;;;;;;;12.15;8.07;;;;;;;6.27;78.75;92041.09;2075024;69;20266;-72
2021/03/12 01:46:11;;;;;;;11.48;7.93;;;;;;;6.39;77.35;92015.28;2075295;69;20151;-71
2021/03/12 01:48:37;;;;;;;11.38;7.68;;;;;;;6.30;78.52;92014.75;2075207;69;20216;-70
2021/03/12 01:51:06;;;;;;;9.63;6.43;;;;;;;6.33;77.77;92027.53;2075247;69;20479;-70
2021/03/12 01:53:34;;;;;;;8.10;5.80;;;;;;;6.13;78.24;92031.06;2075457;69;20150;-70
2021/03/12 01:56:03;;;;;;;9.95;6.40;;;;;;;6.36;77.14;92051.50;2079263;69;20139;-69
2021/03/12 01:58:38;;;;;;;9.85;6.43;;;;;;;6.26;77.49;92036.84;2079097;69;20186;-70
2021/03/12 02:01:08;;;;;;;9.30;6.40;;;;;;;6.31;77.54;92038.56;2075455;69;20159;-70
2021/03/12 02:03:43;;;;;;;7.97;5.85;;;;;;;6.22;77.39;92038.66;2075037;69;20156;-71
2021/03/12 02:06:17;;;;;;;10.00;6.90;;;;;;;6.23;76.31;92051.28;2075042;69;20512;-70
2021/03/12 02:08:44;;;;;;;8.85;6.15;;;;;;;6.16;77.77;92047.38;2078932;69;20262;-70
2021/03/12 02:11:19;;;;;;;11.10;7.30;;;;;;;6.17;77.19;92060.00;2075179;69;20132;-70
2021/03/12 02:14:15;;;;;;;10.80;7.00;;;;;;;6.24;77.25;92073.06;2074804;69;20589;-70
2021/03/12 02:16:53;;;;;;;9.88;7.05;;;;;;;6.42;76.47;92064.44;2075467;69;20224;-71
2021/03/12 02:19:54;;;;;;;12.50;7.05;;;;;;;6.17;77.10;92073.97;2075147;69;20596;-70
2021/03/12 02:22:22;;;;;;;10.32;6.95;;;;;;;5.94;77.77;92071.75;2075092;69;20140;-70
2021/03/12 02:25:20;;;;;;;10.65;7.10;;;;;;;6.03;77.62;92075.84;2075081;69;20160;-70
2021/03/12 02:27:58;;;;;;;9.98;6.53;;;;;;;5.79;77.25;92080.50;2075188;69;20316;-71
2021/03/12 02:30:26;;;;;;;11.20;7.90;;;;;;;5.94;78.44;92074.56;2075465;69;20533;-71
2021/03/12 02:32:54;;;;;;;10.55;7.32;;;;;;;6.01;77.59;92070.84;2075568;69;20135;-70
2021/03/12 02:35:27;;;;;;;10.98;7.28;;;;;;;6.02;77.48;92074.38;2075140;69;20175;-70
2021/03/12 02:38:07;;;;;;;11.07;7.10;;;;;;;6.00;77.81;92065.84;2075069;69;20273;-70
2021/03/12 02:40:35;;;;;;;11.20;7.10;;;;;;;5.96;78.82;92074.72;2075052;69;20598;-70
2021/03/12 02:43:05;;;;;;;10.25;6.38;;;;;;;6.09;78.30;92060.22;2074886;69;20146;-70
2021/03/12 02:45:31;;;;;;;12.85;8.15;;;;;;;5.74;77.64;92071.09;2075115;69;20163;-71
2021/03/12 02:48:09;;;;;;;15.20;9.68;;;;;;;5.58;79.50;92069.97;2075079;69;20226;-70
2021/03/12 02:50:40;;;;;;;14.40;9.57;;;;;;;5.75;79.55;92085.78;2078721;69;20132;-70
2021/03/12 02:53:16;;;;;;;12.88;8.95;;;;;;;5.89;77.28;92086.03;2078710;69;20174;-70
2021/03/12 02:55:41;;;;;;;11.45;8.25;;;;;;;5.92;77.33;92085.59;2075008;69;20196;-70
2021/03/12 02:58:16;;;;;;;11.75;8.45;;;;;;;5.97;77.98;92095.00;2074988;69;20143;-71
2021/03/12 03:00:42;;;;;;;12.07;7.95;;;;;;;6.16;77.19;92099.75;2075082;69;20159;-71
2021/03/12 03:03:38;;;;;;;9.93;6.53;;;;;;;6.07;77.93;92110.38;2076073;69;20711;-70
2021/03/12 03:06:22;;;;;;;8.73;6.07;;;;;;;6.11;78.24;92110.66;2078710;69;20155;-70
2021/03/12 03:08:49;;;;;;;12.07;8.48;;;;;;;5.54;79.56;92103.97;2069349;69;20135;-71
2021/03/12 03:11:16;;;;;;;11.25;8.35;;;;;;;5.67;78.76;92105.50;2078660;69;20201;-70
2021/03/12 03:13:44;;;;;;;11.57;7.57;;;;;;;5.26;80.13;92099.91;2072108;69;20163;-70
2021/03/12 03:16:23;;;;;;;12.98;7.25;;;;;;;5.71;79.05;92099.47;2072206;69;20152;-71
2021/03/12 03:18:49;;;;;;;9.95;6.93;;;;;;;5.83;79.00;92098.25;2074982;69;20186;-70
2021/03/12 03:21:16;;;;;;;11.32;7.72;;;;;;;5.89;77.93;92108.38;2075053;69;20170;-70
2021/03/12 03:23:44;;;;;;;11.85;7.15;;;;;;;5.94;78.10;92096.19;2078688;69;20669;-71
2021/03/12 03:26:09;;;;;;;9.48;7.22;;;;;;;5.73;78.15;92094.06;2074918;69;20175;-70
2021/03/12 03:28:39;;;;;;;11.93;7.53;;;;;;;5.86;78.32;92108.25;2078467;69;20227;-70
2021/03/12 03:31:05;;;;;;;10.80;7.00;;;;;;;5.94;77.34;92119.25;2074821;69;20151;-70
2021/03/12 03:33:31;;;;;;;10.30;7.20;;;;;;;6.04;76.48;92116.41;2074906;69;20170;-70
2021/03/12 03:36:00;;;;;;;11.98;7.15;;;;;;;5.92;77.08;92124.72;2074796;69;20164;-71
2021/03/12 03:38:26;;;;;;;10.10;6.80;;;;;;;5.73;78.03;92121.97;2078579;69;20245;-70
2021/03/12 03:40:51;;;;;;;12.25;7.47;;;;;;;5.97;76.84;92123.66;2074869;69;20585;-70
2021/03/12 03:43:24;;;;;;;9.13;6.85;;;;;;;6.08;76.94;92136.97;2078537;69;20159;-70
2021/03/12 03:45:51;;;;;;;9.35;6.80;;;;;;;5.69;77.40;92130.81;2074891;69;20232;-71
2021/03/12 03:48:28;;;;;;;10.93;7.45;;;;;;;5.83;77.71;92128.25;2074738;69;20187;-71
2021/03/12 03:50:54;;;;;;;11.00;7.60;;;;;;;5.71;77.77;92141.38;2074747;69;20167;-70
2021/03/12 03:53:22;;;;;;;10.02;6.75;;;;;;;5.07;80.42;92144.59;2074768;69;20182;-71
2021/03/12 03:55:50;;;;;;;13.40;8.70;;;;;;;4.78;82.79;92141.81;2071848;69;20204;-70
2021/03/12 03:58:17;;;;;;;11.32;7.82;;;;;;;5.11;81.04;92136.50;2074641;69;20179;-71
2021/03/12 04:00:44;;;;;;;10.65;7.18;;;;;;;5.41;79.07;92137.94;2074843;69;20167;-71
2021/03/12 04:03:11;;;;;;;12.18;7.72;;;;;;;5.59;78.88;92138.50;2074847;69;20136;-70
2021/03/12 04:05:54;;;;;;;10.52;7.35;;;;;;;5.53;78.55;92122.03;2072209;69;20151;-70
2021/03/12 04:08:21;;;;;;;10.43;6.40;;;;;;;5.56;78.59;92128.50;2074861;69;20571;-71
2021/03/12 04:10:48;;;;;;;7.72;5.30;;;;;;;5.59;78.35;92127.31;2074874;69;20221;-70
2021/03/12 04:13:14;;;;;;;8.40;5.60;;;;;;;5.48;78.03;92125.13;2078388;69;20154;-70
2021/03/12 04:15:39;;;;;;;7.13;5.28;;;;;;;5.34;78.14;92116.50;2074730;69;20171;-70
2021/03/12 04:18:06;;;;;;;10.38;7.18;;;;;;;5.31;79.98;92118.44;2074853;69;20606;-70
2021/03/12 04:20:35;;;;;;;11.95;7.75;;;;;;;4.76;80.45;92117.28;2074703;69;20609;-71
2021/03/12 04:23:02;;;;;;;10.13;6.70;;;;;;;4.78;80.20;92114.66;2074872;69;20143;-70
2021/03/12 04:25:33;;;;;;;13.13;7.45;;;;;;;5.02;79.51;92117.72;2074743;69;20136;-70
2021/03/12 04:28:02;;;;;;;10.02;6.80;;;;;;;4.95;79.70;92126.97;2074458;69;20152;-70
2021/03/12 04:30:30;;;;;;;11.45;7.05;;;;;;;4.96;79.39;92125.66;2074650;69;20175;-71
2021/03/12 04:32:58;;;;;;;12.43;6.97;;;;;;;4.96;79.00;92136.84;2074722;69;20147;-70
2021/03/12 04:35:24;;;;;;;10.55;7.00;;;;;;;4.87;79.72;92135.50;2073903;69;20595;-72
2021/03/12 04:37:51;;;;;;;13.32;8.38;;;;;;;4.66;80.98;92157.66;2074029;69;20235;-70
2021/03/12 04:40:19;;;;;;;11.45;7.50;;;;;;;4.45;80.38;92158.25;2074129;69;20242;-70
2021/03/12 04:42:48;;;;;;;10.68;7.53;;;;;;;4.77;81.05;92168.25;2074197;69;20596;-71
2021/03/12 04:45:17;;;;;;;14.00;8.93;;;;;;;4.95;78.99;92174.41;2074772;69;20243;-70
2021/03/12 04:47:46;;;;;;;15.55;9.05;;;;;;;4.93;80.05;92180.56;2074597;69;20132;-70
2021/03/12 04:50:12;;;;;;;20.05;11.10;;;;;;;5.03;79.52;92194.50;2074666;69;20155;-70
2021/03/12 04:52:41;;;;;;;17.38;10.00;;;;;;;5.16;78.88;92196.13;2074792;69;20140;-71
2021/03/12 04:55:09;;;;;;;60.10;27.55;;;;;;;5.31;78.68;92196.56;2074835;69;20198;-72
2021/03/12 04:57:36;;;;;;;44.25;20.77;;;;;;;5.35;78.41;92207.28;2075334;69;20290;-71
2021/03/12 05:00:07;;;;;;;18.92;10.00;;;;;;;5.39;78.00;92206.84;2074844;69;20196;-72
2021/03/12 05:02:39;;;;;;;14.10;8.80;;;;;;;5.43;78.86;92215.50;2075408;69;20155;-72
2021/03/12 05:05:08;;;;;;;24.15;12.93;;;;;;;5.05;79.84;92223.31;2074791;69;20606;-72
2021/03/12 05:07:34;;;;;;;17.05;9.90;;;;;;;5.33;78.81;92216.25;2074827;69;20702;-72
2021/03/12 05:10:11;;;;;;;15.80;9.88;;;;;;;5.46;77.52;92209.47;2074934;69;20156;-71
2021/03/12 05:12:37;;;;;;;24.35;13.27;;;;;;;5.05;78.97;92203.03;2071884;69;20151;-71
2021/03/12 05:15:04;;;;;;;22.40;12.18;;;;;;;4.90;79.58;92208.91;2074904;69;20162;-71
2021/03/12 05:17:30;;;;;;;15.02;10.07;;;;;;;5.03;79.37;92208.47;2074832;69;20595;-71
2021/03/12 05:19:58;;;;;;;12.00;7.55;;;;;;;5.14;78.81;92201.59;2074801;69;20138;-71
2021/03/12 05:22:23;;;;;;;9.95;5.93;;;;;;;5.15;79.11;92205.84;2074789;69;20152;-71
2021/03/12 05:24:49;;;;;;;7.40;4.60;;;;;;;5.16;79.40;92216.41;2074899;69;20178;-71
2021/03/12 05:27:15;;;;;;;12.38;7.07;;;;;;;5.08;78.47;92216.53;2075233;69;20221;-71
2021/03/12 05:29:46;;;;;;;13.68;8.10;;;;;;;4.91;79.45;92202.00;2074926;69;20168;-71
2021/03/12 05:32:12;;;;;;;10.07;7.00;;;;;;;4.96;79.64;92195.41;2074730;69;20151;-71
2021/03/12 05:34:41;;;;;;;13.55;8.70;;;;;;;4.64;79.75;92191.72;2074634;69;20514;-72
2021/03/12 05:37:11;;;;;;;16.02;8.38;;;;;;;4.76;80.34;92187.00;2074861;69;20150;-72
2021/03/12 05:39:37;;;;;;;22.95;13.63;;;;;;;4.56;80.60;92183.47;2074739;69;20148;-72
2021/03/12 05:42:06;;;;;;;18.70;11.35;;;;;;;4.64;80.58;92183.34;2074651;69;20143;-73
2021/03/12 05:44:37;;;;;;;16.58;10.18;;;;;;;4.80;79.16;92189.38;2074890;69;20279;-72
2021/03/12 05:47:05;;;;;;;9.30;5.63;;;;;;;4.75;78.60;92198.75;2074722;69;20591;-71
2021/03/12 05:49:33;;;;;;;4.45;2.80;;;;;;;4.71;78.05;92195.66;2074721;69;20156;-71
2021/03/12 05:51:59;;;;;;;3.20;2.15;;;;;;;4.73;77.67;92190.25;2074729;69;20136;-72
2021/03/12 05:54:26;;;;;;;3.35;2.38;;;;;;;4.73;76.85;92187.47;2074721;69;20151;-72
2021/03/12 05:56:53;;;;;;;15.00;8.63;;;;;;;4.19;80.48;92188.38;2074562;69;20144;-72
2021/03/12 05:59:20;;;;;;;11.27;7.05;;;;;;;4.14;80.31;92191.44;2074710;69;20577;-71
2021/03/12 06:01:49;;;;;;;9.15;6.10;;;;;;;4.44;80.16;92199.28;2074906;69;20166;-71
2021/03/12 06:04:16;;;;;;;8.25;5.75;;;;;;;4.54;78.99;92207.69;2075209;69;20172;-71
2021/03/12 06:06:43;;;;;;;11.82;7.38;;;;;;;4.37;79.86;92216.88;2074708;69;20132;-71
2021/03/12 06:09:09;;;;;;;11.38;6.82;;;;;;;4.58;79.56;92219.88;2074681;69;20683;-72
2021/03/12 06:11:35;;;;;;;8.65;6.05;;;;;;;4.77;79.30;92208.03;2074664;69;20674;-71
2021/03/12 06:14:02;;;;;;;7.43;4.93;;;;;;;4.49;79.16;92228.19;2074607;69;20282;-71
2021/03/12 06:16:48;;;;;;;10.25;6.03;;;;;;;4.46;80.50;92229.38;2074663;69;20246;-71
2021/03/12 06:19:17;;;;;;;;;;;;;;;4.85;79.07;92239.28;2075530;69;20155;-72
2021/03/12 06:21:47;;;;;;;6.93;5.03;;;;;;;4.99;77.96;92247.94;2074664;69;20055;-71
2021/03/12 06:24:22;;;;;;;5.57;4.38;;;;;;;5.13;77.58;92237.09;2074809;69;20159;-71
2021/03/12 06:26:54;;;;;;;5.88;3.85;;;;;;;5.20;76.89;92244.59;2074510;69;20538;-72
2021/03/12 06:29:33;;;;;;;7.22;3.58;;;;;;;5.30;77.18;92242.53;2074809;69;20167;-71
2021/03/12 06:32:36;;;;;;;6.57;3.90;;;;;;;5.34;77.10;92251.19;2075096;69;20163;-72
2021/03/12 06:35:22;;;;;;;6.75;4.70;;;;;;;5.12;77.58;92266.31;2074603;69;20191;-72
2021/03/12 06:38:08;;;;;;;9.48;6.32;;;;;;;5.36;77.01;92261.81;2074645;69;20177;-72
2021/03/12 06:40:45;;;;;;;8.30;5.60;;;;;;;5.52;76.47;92278.97;2074623;69;20538;-72
2021/03/12 06:43:26;;;;;;;8.15;5.25;;;;;;;5.60;76.10;92273.97;2074547;69;20151;-72
2021/03/12 06:46:01;;;;;;;6.97;4.97;;;;;;;5.63;76.10;92283.94;2075187;69;20159;-71
2021/03/12 06:48:35;;;;;;;9.05;5.10;;;;;;;5.52;76.78;92284.56;2074619;69;20322;-73
2021/03/12 06:51:21;;;;;;;8.18;5.20;;;;;;;5.45;76.16;92282.63;2075109;69;20227;-75
2021/03/12 06:53:49;;;;;;;6.97;4.63;;;;;;;5.62;76.15;92290.88;2074707;69;20164;-73
2021/03/12 06:56:16;;;;;;;6.53;4.28;;;;;;;5.89;75.48;92287.91;2075107;69;20140;-74
2021/03/12 06:59:01;;;;;;;7.60;3.97;;;;;;;5.91;75.65;92290.09;2074497;69;20228;-74
2021/03/12 07:01:33;;;;;;;6.45;4.07;;;;;;;5.81;75.59;92281.72;2074584;69;20155;-72
2021/03/12 07:04:15;;;;;;;9.45;5.30;;;;;;;5.30;76.30;92284.41;2074652;69;20143;-71
2021/03/12 07:07:00;;;;;;;9.52;5.55;;;;;;;5.30;76.99;92281.63;2075079;69;20263;-71
2021/03/12 07:09:29;;;;;;;8.02;5.60;;;;;;;5.61;76.20;92286.63;2074547;69;20144;-70
2021/03/12 07:12:08;;;;;;;14.23;7.10;;;;;;;5.53;76.19;92294.41;2074525;69;20195;-70
2021/03/12 07:14:54;;;;;;;21.83;10.82;;;;;;;5.61;75.90;92306.16;2075076;69;20147;-71
2021/03/12 07:17:31;;;;;;;16.40;9.38;;;;;;;5.66;76.43;92310.72;2074612;69;20174;-71
2021/03/12 07:20:06;;;;;;;9.43;5.82;;;;;;;5.49;76.27;92306.00;2074705;69;20151;-70
2021/03/12 07:22:33;;;;;;;8.02;6.07;;;;;;;4.89;78.33;92319.72;2074509;69;20148;-71
2021/03/12 07:25:03;;;;;;;9.13;6.20;;;;;;;5.54;77.33;92318.97;2075183;69;20591;-71
2021/03/12 07:27:39;;;;;;;9.45;5.93;;;;;;;5.78;75.67;92313.66;2074392;69;20306;-71
2021/03/12 07:30:17;;;;;;;8.43;5.47;;;;;;;6.04;75.34;92317.59;2074503;69;20255;-71
2021/03/12 07:32:47;;;;;;;9.88;6.20;;;;;;;6.07;75.05;92316.44;2075052;69;20148;-71
2021/03/12 07:35:16;;;;;;;13.95;7.15;;;;;;;6.12;75.31;92315.38;2074476;69;20209;-71
2021/03/12 07:38:07;;;;;;;19.30;10.90;;;;;;;5.43;76.63;92311.16;2073888;69;20228;-71
2021/03/12 07:40:37;;;;;;;13.07;9.52;;;;;;;6.06;75.57;92320.56;2071961;69;20172;-71
2021/03/12 07:43:14;;;;;;;13.82;9.10;;;;;;;6.17;74.71;92319.19;2074364;69;20160;-71
2021/03/12 07:45:47;;;;;;;10.93;7.43;;;;;;;5.91;74.56;92321.59;2074612;69;20170;-71
2021/03/12 07:48:14;;;;;;;16.70;10.60;;;;;;;5.42;76.58;92325.72;2075013;69;20183;-71
2021/03/12 07:51:17;;;;;;;13.20;9.02;;;;;;;5.85;76.20;92326.72;2075053;69;20151;-71
2021/03/12 07:53:54;;;;;;;15.32;9.30;;;;;;;5.97;75.30;92326.88;2074581;69;20258;-72
2021/03/12 07:56:44;;;;;;;16.02;9.20;;;;;;;6.18;75.16;92334.63;2071874;69;20154;-71
2021/03/12 07:59:47;;;;;;;12.15;8.52;;;;;;;6.15;74.84;92330.97;2075069;69;20144;-72
2021/03/12 08:02:53;;;;;;;13.57;8.20;;;;;;;6.06;74.54;92332.47;2075124;69;20594;-72
2021/03/12 08:05:40;;;;;;;14.48;7.00;;;;;;;6.05;75.55;92333.78;2074380;69;20175;-72
2021/03/12 08:08:34;;;;;;;13.90;6.63;;;;;;;6.07;76.11;92336.72;2074417;69;20148;-71
2021/03/12 08:11:51;;;;;;;8.10;6.25;;;;;;;6.58;75.89;92334.69;2074993;69;20206;-72
2021/03/12 08:14:41;;;;;;;10.48;6.45;;;;;;;8.17;73.70;92340.91;2075035;69;20144;-71
2021/03/12 08:17:16;;;;;;;9.40;7.03;;;;;;;7.55;71.26;92322.97;2074601;69;20229;-72
2021/03/12 08:19:54;;;;;;;7.45;5.15;;;;;;;8.11;70.64;92333.59;2075072;69;20140;-71
2021/03/12 08:22:29;;;;;;;25.90;18.25;;;;;;;8.04;70.66;92323.31;2074871;69;20143;-73
2021/03/12 08:25:35;;;;;;;15.82;9.35;;;;;;;8.20;69.98;92311.66;2075041;69;20247;-74
2021/03/12 08:28:19;;;;;;;12.38;7.53;;;;;;;8.97;67.92;92301.66;2074797;69;20147;-72
2021/03/12 08:30:54;;;;;;;12.57;7.88;;;;;;;8.64;67.40;92305.31;2075004;69;20156;-73
2021/03/12 08:33:38;;;;;;;14.82;8.75;;;;;;;8.05;66.83;92301.63;2074886;69;20618;-74
2021/03/12 08:36:27;;;;;;;15.63;7.97;;;;;;;8.61;66.14;92295.31;2079198;69;20162;-74
2021/03/12 08:39:25;;;;;;;14.25;8.10;;;;;;;7.93;66.53;92296.00;2079303;69;20225;-72
2021/03/12 08:42:16;;;;;;;15.20;7.93;;;;;;;7.45;67.81;92282.38;2079002;69;20154;-74
2021/03/12 08:45:37;;;;;;;11.52;7.10;;;;;;;9.19;67.37;92286.16;2067687;69;20175;-73
2021/03/12 08:48:10;;;;;;;;;;;;;;;9.86;65.25;92280.88;2079023;69;20139;-72
2021/03/12 08:50:39;;;;;;;11.55;7.07;;;;;;;9.30;64.88;92279.03;2075494;69;20425;-74
2021/03/12 08:53:05;;;;;;;15.10;7.15;;;;;;;9.01;64.84;92276.66;2079145;69;20216;-72
2021/03/12 08:55:47;;;;;;;19.58;11.55;;;;;;;10.14;64.76;92281.72;2075431;69;20155;-71
2021/03/12 08:58:17;;;;;;;14.85;8.20;;;;;;;9.88;63.50;92272.53;2075379;69;20231;-73
2021/03/12 09:00:50;;;;;;;16.85;9.10;;;;;;;10.04;62.80;92278.34;2075469;69;20177;-71
2021/03/12 09:03:31;;;;;;;13.10;8.77;;;;;;;10.08;61.69;92267.31;2075401;69;20155;-73
2021/03/12 09:06:27;;;;;;;17.23;6.90;;;;;;;10.60;60.44;92280.03;2073702;69;20154;-74
2021/03/12 09:09:13;;;;;;;13.40;7.93;;;;;;;11.44;59.43;92273.81;2078950;69;20155;-73
2021/03/12 09:11:57;;;;;;;46.10;29.55;;;;;;;11.37;56.79;92261.50;2075298;69;20174;-71
2021/03/12 09:14:39;;;;;;;23.45;13.70;;;;;;;10.37;61.58;92264.00;2075492;69;20490;-74
2021/03/12 09:17:05;;;;;;;27.75;16.20;;;;;;;10.48;58.82;92260.38;2075445;69;20140;-72
2021/03/12 09:19:32;;;;;;;16.65;8.32;;;;;;;12.38;59.00;92261.50;2075368;69;20171;-76
2021/03/12 09:22:03;;;;;;;19.63;10.70;;;;;;;13.77;55.57;92259.16;2075483;69;20151;-74
2021/03/12 09:24:51;;;;;;;15.85;5.43;;;;;;;12.95;53.34;92256.34;2075420;69;20209;-75
2021/03/12 09:27:20;;;;;;;13.13;6.82;;;;;;;14.05;51.77;92257.50;2075355;69;20695;-75
2021/03/12 09:30:03;;;;;;;10.60;6.40;;;;;;;15.64;48.36;92257.91;2075481;69;20239;-70
2021/03/12 09:32:39;;;;;;;19.73;5.70;;;;;;;13.99;48.35;92248.78;2075651;69;20147;-71
2021/03/12 09:35:17;;;;;;;14.73;4.53;;;;;;;14.46;48.59;92250.63;2075359;69;20232;-73
2021/03/12 09:37:46;;;;;;;10.63;4.38;;;;;;;15.79;45.84;92247.03;2079099;69;20151;-74
2021/03/12 09:40:52;;;;;;;13.10;6.47;;;;;;;16.16;42.82;92249.72;2079150;69;20231;-79
2021/03/12 09:43:22;;;;;;;11.60;4.15;;;;;;;16.27;44.26;92248.66;2072574;69;20140;-74
2021/03/12 09:45:58;;;;;;;12.82;6.57;;;;;;;16.86;40.29;92251.91;2075328;69;20144;-73
2021/03/12 09:48:39;;;;;;;6.20;2.92;;;;;;;16.49;42.88;92256.44;2075172;69;20148;-75
2021/03/12 09:51:12;;;;;;;3.22;2.10;;;;;;;17.21;38.88;92251.56;2075447;69;20154;-72
2021/03/12 09:53:42;;;;;;;3.85;2.40;;;;;;;16.52;37.81;92247.31;2075342;69;20183;-76
2021/03/12 09:56:13;;;;;;;7.18;3.20;;;;;;;18.31;36.21;92250.97;2075266;69;20147;-76
2021/03/12 09:58:45;;;;;;;3.28;2.05;;;;;;;18.75;33.33;92247.81;2075209;69;20588;-76
2021/03/12 10:01:36;;;;;;;2.83;1.67;;;;;;;19.47;32.68;92247.97;2079038;69;20249;-73
2021/03/12 10:04:22;;;;;;;6.35;1.70;;;;;;;18.64;32.47;92240.38;2075357;69;20238;-72
2021/03/12 10:07:06;;;;;;;4.63;1.50;;;;;;;15.49;36.46;92242.47;2075508;69;20592;-77
2021/03/12 10:09:34;;;;;;;2.20;1.20;;;;;;;16.73;32.92;92236.63;2075303;69;20582;-74
2021/03/12 10:12:18;;;;;;;4.05;1.30;;;;;;;15.61;33.07;92232.91;2075278;69;20250;-73
2021/03/12 10:14:54;;;;;;;1.73;1.20;;;;;;;17.11;32.19;92227.78;2078983;69;20154;-73
2021/03/12 10:17:35;;;;;;;2.85;1.67;;;;;;;19.05;31.28;92228.50;2075292;69;20147;-75
2021/03/12 10:20:07;;;;;;;7.65;1.40;;;;;;;18.90;30.27;92235.31;2075369;69;20147;-73
2021/03/12 10:22:34;;;;;;;2.10;1.30;;;;;;;20.28;27.64;92234.50;2078966;69;20171;-73
2021/03/12 10:25:19;;;;;;;5.45;1.10;;;;;;;19.56;26.48;92226.00;2078936;69;20501;-72
2021/03/12 10:27:53;;;;;;;5.22;1.30;;;;;;;19.36;26.67;92231.28;2078799;69;20135;-75
2021/03/12 10:30:33;;;;;;;1.30;0.98;;;;;;;18.97;27.89;92224.78;2078924;69;20147;-74
2021/03/12 10:33:01;;;;;;;3.22;1.15;;;;;;;19.18;26.22;92220.94;2078932;69;20140;-78
2021/03/12 10:35:36;;;;;;;2.13;1.10;;;;;;;19.61;25.92;92221.88;2078825;69;20171;-75
2021/03/12 10:38:01;;;;;;;5.03;1.33;;;;;;;17.66;26.60;92218.66;2078935;69;20148;-74
2021/03/12 10:40:35;;;;;;;1.73;1.20;;;;;;;19.23;25.73;92216.03;2077607;69;20178;-74
2021/03/12 10:43:13;;;;;;;4.90;2.13;;;;;;;18.81;26.66;92213.00;2078310;69;20140;-75
2021/03/12 10:45:56;;;;;;;2.42;1.50;;;;;;;20.70;25.42;92216.63;2078634;69;20169;-73
2021/03/12 10:48:27;;;;;;;1.50;1.05;;;;;;;20.79;22.14;92211.75;2078684;69;20139;-72
2021/03/12 10:50:58;;;;;;;4.35;2.85;;;;;;;22.97;21.05;92211.38;2078734;69;20136;-74
2021/03/12 10:53:24;;;;;;;5.75;1.60;;;;;;;23.38;19.99;92210.94;2078716;69;20185;-77
2021/03/12 10:55:52;;;;;;;3.60;1.65;;;;;;;22.70;20.84;92207.56;2078723;69;20240;-73
2021/03/12 10:58:26;;;;;;;1.25;0.60;;;;;;;19.69;21.06;92201.28;2078624;69;20182;-75
2021/03/12 11:01:13;;;;;;;1.45;0.73;;;;;;;21.40;21.06;92206.22;2078743;69;20155;-78
2021/03/12 11:03:41;;;;;;;2.33;1.70;;;;;;;27.75;17.17;92219.97;2075286;69;20147;-73
2021/03/12 11:06:07;;;;;;;3.85;1.75;;;;;;;29.10;15.36;92221.81;2078658;69;20182;-72
2021/03/12 11:08:34;;;;;;;3.03;1.25;;;;;;;28.45;16.59;92216.97;2075301;69;20139;-70
2021/03/12 11:11:01;;;;;;;1.83;1.48;;;;;;;29.17;16.58;92207.94;2078704;69;20540;-71
2021/03/12 11:13:27;;;;;;;2.13;1.60;;;;;;;30.78;14.67;92221.56;2078489;69;20155;-70
2021/03/12 11:15:52;;;;;;;3.50;1.50;;;;;;;31.17;13.95;92209.75;2078638;69;20139;-77
2021/03/12 11:18:18;;;;;;;1.00;0.90;;;;;;;31.27;13.23;92205.88;2075268;69;20621;-73
2021/03/12 11:20:44;;;;;;;2.35;1.02;;;;;;;31.74;14.66;92216.34;2078664;69;20154;-73
2021/03/12 11:23:11;;;;;;;2.30;1.08;;;;;;;33.86;11.72;92201.22;2078644;69;20142;-70
2021/03/12 11:25:40;;;;;;;1.88;0.75;;;;;;;31.91;12.19;92199.19;2078654;69;20537;-70
2021/03/12 11:28:06;;;;;;;2.17;0.80;;;;;;;27.68;15.80;92189.69;2078566;69;20628;-69
2021/03/12 11:30:32;;;;;;;1.17;0.70;;;;;;;29.18;14.53;92191.25;2078597;69;20132;-69
2021/03/12 11:32:58;;;;;;;0.68;0.60;;;;;;;29.89;13.63;92187.09;2078727;69;20664;-70
2021/03/12 11:35:23;;;;;;;1.85;0.98;;;;;;;29.97;12.10;92186.22;2078574;69;20232;-70
2021/03/12 11:37:49;;;;;;;2.60;0.63;;;;;;;28.78;11.93;92178.88;2078652;69;20529;-70
2021/03/12 11:40:15;;;;;;;0.65;0.65;;;;;;;26.49;11.84;92177.72;2078630;69;20143;-70
2021/03/12 11:42:42;;;;;;;0.95;0.65;;;;;;;30.94;11.02;92185.63;2078500;69;20505;-71
2021/03/12 11:45:13;;;;;;;0.70;0.50;;;;;;;30.38;11.76;92171.59;2078598;69;20178;-71
2021/03/12 11:47:40;;;;;;;1.20;0.90;;;;;;;26.99;12.04;92164.34;2078622;69;20155;-71
2021/03/12 11:50:09;;;;;;;0.68;0.50;;;;;;;27.73;12.36;92167.25;2072397;69;20135;-70
2021/03/12 11:52:35;;;;;;;2.05;0.70;;;;;;;26.36;12.31;92159.75;2078954;69;20215;-70
2021/03/12 11:55:01;;;;;;;1.20;1.10;;;;;;;28.95;10.66;92168.47;2075705;69;20514;-71
2021/03/12 11:57:26;;;;;;;0.82;0.70;;;;;;;33.19;9.72;92160.44;2078924;69;20613;-71
2021/03/12 11:59:52;;;;;;;1.88;1.77;;;;;;;30.81;9.04;92161.94;2079146;69;20158;-71
2021/03/12 12:02:18;;;;;;;1.67;1.35;;;;;;;32.44;9.92;92154.75;2079123;69;20239;-71